Aviation Digital Data Service (ADDS)

Output produced by TAFs form (1957 UTC 25 February 2018)
found at http://aviationweather.gov/adds/tafs/
 
METAR text: ZYTL 251930Z 10002MPS CAVOK M01/M05 Q1023 NOSIG
Conditions at: ZYTL (DALIAN/DAIREN/LU, CN) observed 1930 UTC 25 February 2018
Temperature: -1.0°C (30°F)
Dewpoint: -5.0°C (23°F) [RH = 74%]
Pressure (altimeter): 30.21 inches Hg (1023.0 mb)
Winds: from the E (100 degrees) at 5 MPH (4 knots; 2.1 m/s)
Visibility: 6 or more miles (10+ km)
Ceiling: ceiling and visibility are OK
Clouds: unknown
Weather: no significant weather observed at this time

Forecast for: ZYTL (DALIAN/DAIREN/LU, CN)
Text: TAF ZYTL 251507Z 2518/2618 18003MPS CAVOK TX06/2606Z TNM03/20Z
Forecast period: 1800 UTC 25 February 2018 to 1800 UTC 26 February 2018
Forecast type: FROM: standard forecast or significant change
Winds: from the S (180 degrees) at 7 MPH (6 knots; 3.1 m/s)
Visibility: 6 or more miles (10+ km)
Clouds: not forecast
Temperature: minimum -3.0°C (27°F) expected at 2000 UTC
Weather: no significant weather forecast for this period